Time;durP1;ratioP1;P1;durP2;ratioP2;P2;SDS_P1;SDS_P2;PMS_P1;PMS_P2;Temp;Humidity;BMP_temperature;BMP_pressure;BME280_temperature;BME280_humidity;BME280_pressure;Samples;Min_cycle;Max_cycle;Signal;HPM_P1;HPM_P2
2024/01/17 00:00:05;;;;;;;4.10;3.17;;;;;;;;;;5058238;27;92271;-75
2024/01/17 00:02:37;;;;;;;7.85;2.85;;;;;;;;;;5037744;27;92037;-75
2024/01/17 00:05:04;;;;;;;7.03;3.10;;;;;;;;;;5058572;27;91946;-75
2024/01/17 00:07:33;;;;;;;8.75;3.22;;;;;;;;;;5039850;27;92065;-75
2024/01/17 00:10:00;;;;;;;3.97;2.80;;;;;;;;;;5057820;27;92006;-75
2024/01/17 00:12:26;;;;;;;5.60;3.40;;;;;;;;;;5058155;27;91788;-75
2024/01/17 00:14:53;;;;;;;3.47;2.70;;;;;;;;;;5057880;27;92333;-75
2024/01/17 00:17:19;;;;;;;4.05;2.97;;;;;;;;;;5057673;27;91980;-75
2024/01/17 00:19:46;;;;;;;3.92;2.65;;;;;;;;;;5060895;27;92202;-75
2024/01/17 00:22:15;;;;;;;6.53;2.95;;;;;;;;;;5057755;27;92176;-75
2024/01/17 00:24:41;;;;;;;3.85;2.65;;;;;;;;;;5057916;27;91942;-75
2024/01/17 00:27:08;;;;;;;3.83;3.38;;;;;;;;;;5056676;27;93089;-75
2024/01/17 00:29:35;;;;;;;6.57;3.63;;;;;;;;;;5058117;27;92229;-75
2024/01/17 00:32:01;;;;;;;5.82;3.72;;;;;;;;;;5057656;27;91940;-75
2024/01/17 00:34:28;;;;;;;3.45;3.13;;;;;;;;;;5058247;27;92118;-75
2024/01/17 00:36:54;;;;;;;6.18;3.65;;;;;;;;;;5057732;27;92220;-75
2024/01/17 00:39:22;;;;;;;3.80;2.92;;;;;;;;;;5060588;27;92195;-75
2024/01/17 00:41:50;;;;;;;5.35;3.38;;;;;;;;;;5057218;27;92081;-75
2024/01/17 00:44:18;;;;;;;5.20;3.67;;;;;;;;;;5056919;27;92010;-75
2024/01/17 00:46:45;;;;;;;6.13;4.30;;;;;;;;;;5055675;27;93183;-75
2024/01/17 00:49:12;;;;;;;4.30;2.90;;;;;;;;;;5056385;27;92291;-75
2024/01/17 00:51:39;;;;;;;7.18;3.60;;;;;;;;;;5056531;27;92105;-75
2024/01/17 00:54:06;;;;;;;7.68;3.90;;;;;;;;;;5056169;27;92066;-75
2024/01/17 00:56:34;;;;;;;4.55;3.20;;;;;;;;;;5056014;27;92334;-75
2024/01/17 00:59:00;;;;;;;7.03;3.33;;;;;;;;;;5057213;27;91878;-75
2024/01/17 01:01:27;;;;;;;8.63;3.78;;;;;;;;;;5059815;27;91934;-75
2024/01/17 01:03:53;;;;;;;7.45;3.75;;;;;;;;;;5055244;27;92310;-75
2024/01/17 01:06:20;;;;;;;5.95;4.15;;;;;;;;;;5055177;27;92193;-74
2024/01/17 01:08:46;;;;;;;8.77;3.60;;;;;;;;;;5055136;27;92201;-74
2024/01/17 01:11:13;;;;;;;6.07;3.60;;;;;;;;;;5056479;27;92039;-75
2024/01/17 01:13:39;;;;;;;5.78;3.42;;;;;;;;;;5055323;27;92986;-74
2024/01/17 01:16:05;;;;;;;5.47;3.33;;;;;;;;;;5055500;27;92027;-74
2024/01/17 01:18:32;;;;;;;6.93;3.45;;;;;;;;;;5042330;27;92323;-74
2024/01/17 01:20:58;;;;;;;7.65;3.75;;;;;;;;;;5055549;27;92041;-74
2024/01/17 01:23:26;;;;;;;4.65;3.53;;;;;;;;;;5059333;27;92217;-74
2024/01/17 01:25:53;;;;;;;7.47;3.30;;;;;;;;;;5037274;27;92307;-75
2024/01/17 01:28:19;;;;;;;6.85;3.85;;;;;;;;;;5055535;27;92192;-74
2024/01/17 01:30:46;;;;;;;5.95;3.28;;;;;;;;;;5055035;27;92531;-74
2024/01/17 01:33:13;;;;;;;6.82;4.22;;;;;;;;;;5037926;27;92973;-74
2024/01/17 01:35:40;;;;;;;10.85;3.97;;;;;;;;;;5056043;27;92937;-74
2024/01/17 01:38:06;;;;;;;6.40;3.65;;;;;;;;;;5056066;27;91632;-75
2024/01/17 01:40:33;;;;;;;4.28;3.25;;;;;;;;;;5054658;27;92279;-74
2024/01/17 01:43:00;;;;;;;5.03;3.28;;;;;;;;;;5055328;27;91906;-75
2024/01/17 01:45:26;;;;;;;5.20;3.65;;;;;;;;;;5057348;27;91997;-74
2024/01/17 01:47:53;;;;;;;6.75;3.83;;;;;;;;;;5063846;27;92957;-74
2024/01/17 01:50:20;;;;;;;6.28;3.78;;;;;;;;;;5056810;27;92009;-74
2024/01/17 01:52:48;;;;;;;5.05;3.70;;;;;;;;;;5055871;27;92126;-75
2024/01/17 01:55:15;;;;;;;4.65;3.67;;;;;;;;;;5053808;27;92277;-74
2024/01/17 01:57:46;;;;;;;8.93;4.10;;;;;;;;;;5054735;27;92146;-74
2024/01/17 02:00:13;;;;;;;7.25;4.00;;;;;;;;;;5055312;27;92042;-75
2024/01/17 02:02:40;;;;;;;10.48;4.38;;;;;;;;;;5054065;27;92200;-74
2024/01/17 02:05:06;;;;;;;12.00;3.88;;;;;;;;;;5053489;27;91939;-74
2024/01/17 02:07:33;;;;;;;6.05;3.50;;;;;;;;;;5058265;27;92853;-74
2024/01/17 02:10:01;;;;;;;5.53;3.55;;;;;;;;;;5034424;27;93622;-74
2024/01/17 02:12:27;;;;;;;8.55;4.35;;;;;;;;;;5032208;27;93368;-74
2024/01/17 02:14:54;;;;;;;6.63;4.07;;;;;;;;;;5053496;27;92336;-76
2024/01/17 02:17:21;;;;;;;11.50;4.82;;;;;;;;;;5055512;27;92091;-74
2024/01/17 02:19:47;;;;;;;7.75;4.50;;;;;;;;;;5052371;27;93189;-75
2024/01/17 02:22:14;;;;;;;12.75;5.07;;;;;;;;;;5055374;27;92205;-74
2024/01/17 02:24:40;;;;;;;7.68;4.07;;;;;;;;;;5034220;27;93394;-74
2024/01/17 02:27:07;;;;;;;7.10;4.00;;;;;;;;;;5055335;27;92086;-75
2024/01/17 02:29:33;;;;;;;6.63;4.20;;;;;;;;;;5056224;27;92563;-75
2024/01/17 02:32:00;;;;;;;8.98;4.20;;;;;;;;;;5054990;27;92954;-74
2024/01/17 02:34:27;;;;;;;9.10;4.15;;;;;;;;;;5053131;27;92550;-74
2024/01/17 02:36:53;;;;;;;6.35;4.20;;;;;;;;;;5055649;27;92187;-74
2024/01/17 02:39:20;;;;;;;4.85;3.70;;;;;;;;;;5054637;27;93060;-75
2024/01/17 02:41:46;;;;;;;6.97;3.65;;;;;;;;;;5054486;27;92047;-74
2024/01/17 02:44:13;;;;;;;5.13;3.47;;;;;;;;;;5053187;27;92792;-74
2024/01/17 02:46:39;;;;;;;4.53;3.08;;;;;;;;;;5035675;27;92884;-74
2024/01/17 02:49:06;;;;;;;5.68;3.42;;;;;;;;;;5039366;27;92096;-74
2024/01/17 02:51:32;;;;;;;8.38;3.42;;;;;;;;;;5053613;27;94074;-75
2024/01/17 02:53:59;;;;;;;7.90;4.60;;;;;;;;;;5053917;27;92277;-74
2024/01/17 02:56:25;;;;;;;4.90;3.58;;;;;;;;;;5054104;27;92177;-74
2024/01/17 02:58:52;;;;;;;7.57;3.95;;;;;;;;;;5052285;27;92125;-74
2024/01/17 03:01:18;;;;;;;5.55;3.40;;;;;;;;;;5054401;27;91953;-75
2024/01/17 03:03:45;;;;;;;6.30;4.00;;;;;;;;;;5053193;27;93016;-75
2024/01/17 03:06:11;;;;;;;7.80;4.15;;;;;;;;;;5053569;27;92262;-75
2024/01/17 03:08:38;;;;;;;6.07;4.00;;;;;;;;;;5053731;27;91770;-75
2024/01/17 03:11:04;;;;;;;6.68;3.88;;;;;;;;;;5056175;27;93032;-75
2024/01/17 03:13:31;;;;;;;9.10;3.55;;;;;;;;;;5053436;27;91838;-75
2024/01/17 03:15:57;;;;;;;7.90;4.18;;;;;;;;;;5053525;27;92023;-75
2024/01/17 03:18:24;;;;;;;6.18;3.58;;;;;;;;;;5053888;27;92222;-75
2024/01/17 03:20:50;;;;;;;6.50;4.00;;;;;;;;;;5035048;27;91916;-75
2024/01/17 03:23:17;;;;;;;7.13;3.75;;;;;;;;;;5053262;27;91925;-75
2024/01/17 03:25:43;;;;;;;4.50;3.15;;;;;;;;;;5053407;27;92166;-75
2024/01/17 03:28:10;;;;;;;4.18;3.78;;;;;;;;;;5053415;27;91851;-75
2024/01/17 03:30:36;;;;;;;9.32;3.78;;;;;;;;;;5034977;27;92177;-75
2024/01/17 03:33:03;;;;;;;6.30;4.22;;;;;;;;;;5056696;27;93159;-75
2024/01/17 03:35:30;;;;;;;4.20;3.72;;;;;;;;;;5034371;27;92081;-75
2024/01/17 03:37:57;;;;;;;5.55;3.70;;;;;;;;;;5035392;27;92204;-74
2024/01/17 03:40:24;;;;;;;4.72;3.30;;;;;;;;;;5053761;27;91958;-74
2024/01/17 03:42:51;;;;;;;7.18;3.20;;;;;;;;;;5053953;27;91968;-74
2024/01/17 03:45:17;;;;;;;5.07;3.67;;;;;;;;;;5034323;27;92876;-74
2024/01/17 03:47:44;;;;;;;7.65;4.07;;;;;;;;;;5054021;27;92252;-74
2024/01/17 03:50:10;;;;;;;4.03;3.03;;;;;;;;;;5052479;27;91889;-74
2024/01/17 03:52:37;;;;;;;6.88;3.63;;;;;;;;;;5053732;27;95151;-75
2024/01/17 03:55:03;;;;;;;5.18;3.20;;;;;;;;;;5055722;27;92142;-74
2024/01/17 03:57:29;;;;;;;6.55;3.47;;;;;;;;;;5032805;27;93864;-74
2024/01/17 03:59:56;;;;;;;5.55;3.60;;;;;;;;;;5054101;27;92048;-74
2024/01/17 04:02:22;;;;;;;8.32;3.55;;;;;;;;;;5052694;27;92207;-74
2024/01/17 04:04:49;;;;;;;5.68;3.60;;;;;;;;;;5051216;27;92586;-74
2024/01/17 04:07:20;;;;;;;10.20;4.00;;;;;;;;;;5054147;27;92100;-74
2024/01/17 04:09:47;;;;;;;5.22;3.47;;;;;;;;;;5052402;27;91843;-75
2024/01/17 04:12:13;;;;;;;5.82;3.63;;;;;;;;;;5053941;27;92688;-74
2024/01/17 04:14:40;;;;;;;4.18;3.15;;;;;;;;;;5053312;27;92209;-74
2024/01/17 04:17:08;;;;;;;3.50;2.90;;;;;;;;;;5056956;27;92049;-74
2024/01/17 04:19:35;;;;;;;4.30;2.90;;;;;;;;;;5050850;27;93271;-74
2024/01/17 04:22:01;;;;;;;4.90;3.03;;;;;;;;;;5054560;27;91761;-74
2024/01/17 04:24:30;;;;;;;4.85;3.22;;;;;;;;;;5054727;27;92039;-74
2024/01/17 04:26:56;;;;;;;3.92;2.92;;;;;;;;;;5039131;27;92088;-75
2024/01/17 04:29:23;;;;;;;4.07;3.45;;;;;;;;;;5055375;27;92106;-75
2024/01/17 04:31:49;;;;;;;11.02;3.25;;;;;;;;;;5038775;27;92069;-75
2024/01/17 04:34:16;;;;;;;9.77;3.67;;;;;;;;;;5057236;27;92206;-75
2024/01/17 04:36:43;;;;;;;4.95;3.20;;;;;;;;;;5056422;27;92176;-74
2024/01/17 04:39:10;;;;;;;8.13;3.20;;;;;;;;;;5059085;27;91993;-74
2024/01/17 04:41:36;;;;;;;5.55;3.10;;;;;;;;;;5056128;27;92026;-74
2024/01/17 04:44:03;;;;;;;4.55;3.00;;;;;;;;;;5037999;27;94090;-74
2024/01/17 04:46:29;;;;;;;5.03;3.33;;;;;;;;;;5055911;27;91936;-74
2024/01/17 04:48:56;;;;;;;7.53;3.25;;;;;;;;;;5056557;27;92026;-74
2024/01/17 04:51:25;;;;;;;3.50;2.97;;;;;;;;;;5055423;27;92119;-74
2024/01/17 04:53:52;;;;;;;4.35;3.00;;;;;;;;;;5037408;27;92105;-74
2024/01/17 04:56:19;;;;;;;3.33;2.60;;;;;;;;;;5055854;27;92981;-74
2024/01/17 04:58:45;;;;;;;4.93;3.30;;;;;;;;;;5058709;27;91954;-74
2024/01/17 05:01:12;;;;;;;4.68;3.13;;;;;;;;;;5056345;27;92255;-74
2024/01/17 05:03:41;;;;;;;5.28;3.10;;;;;;;;;;5055758;27;92833;-74
2024/01/17 05:06:08;;;;;;;6.85;3.47;;;;;;;;;;5055365;27;92185;-74
2024/01/17 05:08:34;;;;;;;4.03;2.97;;;;;;;;;;5056043;27;93569;-74
2024/01/17 05:11:01;;;;;;;10.05;3.03;;;;;;;;;;5055508;27;91986;-75
2024/01/17 05:13:28;;;;;;;5.25;2.58;;;;;;;;;;5025923;28;92105;-75
2024/01/17 05:15:55;;;;;;;5.20;3.08;;;;;;;;;;5023099;27;92254;-75
2024/01/17 05:18:21;;;;;;;4.22;2.35;;;;;;;;;;5052187;27;92551;-74
2024/01/17 05:20:48;;;;;;;4.85;3.05;;;;;;;;;;5057906;27;92017;-74
2024/01/17 05:23:14;;;;;;;4.03;2.70;;;;;;;;;;5055673;27;91661;-75
2024/01/17 05:25:41;;;;;;;5.47;2.78;;;;;;;;;;5054677;27;92037;-75
2024/01/17 05:28:07;;;;;;;4.63;3.20;;;;;;;;;;5056692;27;91999;-75
2024/01/17 05:30:34;;;;;;;6.13;3.10;;;;;;;;;;5055062;27;92800;-75
2024/01/17 05:33:01;;;;;;;4.20;2.90;;;;;;;;;;5021033;27;92264;-75
2024/01/17 05:35:28;;;;;;;2.70;2.25;;;;;;;;;;5054372;27;92362;-77
2024/01/17 05:37:55;;;;;;;4.32;2.83;;;;;;;;;;5055088;27;92637;-75
2024/01/17 05:40:22;;;;;;;4.63;2.97;;;;;;;;;;5054089;27;92183;-75
2024/01/17 05:42:49;;;;;;;4.03;2.60;;;;;;;;;;5058853;27;92090;-74
2024/01/17 05:45:16;;;;;;;3.17;2.80;;;;;;;;;;5036346;27;92115;-75
2024/01/17 05:47:43;;;;;;;3.78;2.88;;;;;;;;;;5056183;27;92121;-74
2024/01/17 05:50:09;;;;;;;3.60;2.38;;;;;;;;;;5054653;27;92833;-74
2024/01/17 05:52:39;;;;;;;3.20;2.75;;;;;;;;;;5056612;27;92057;-75
2024/01/17 05:55:09;;;;;;;5.57;2.60;;;;;;;;;;5053425;27;92816;-74
2024/01/17 05:57:36;;;;;;;4.07;2.33;;;;;;;;;;5054304;27;92997;-74
2024/01/17 06:00:03;;;;;;;4.38;2.00;;;;;;;;;;5055378;27;92267;-74
2024/01/17 06:02:30;;;;;;;4.75;2.90;;;;;;;;;;5054724;27;91951;-74
2024/01/17 06:04:57;;;;;;;3.67;2.47;;;;;;;;;;5056518;27;93053;-74
2024/01/17 06:07:23;;;;;;;3.50;2.22;;;;;;;;;;5055746;27;92017;-76
2024/01/17 06:09:50;;;;;;;2.55;2.30;;;;;;;;;;5054151;27;92120;-75
2024/01/17 06:12:16;;;;;;;6.15;2.92;;;;;;;;;;5055116;27;92134;-75
2024/01/17 06:14:42;;;;;;;4.43;2.60;;;;;;;;;;5053351;27;92198;-75
2024/01/17 06:17:09;;;;;;;4.45;2.33;;;;;;;;;;5055865;27;92174;-74
2024/01/17 06:19:35;;;;;;;3.75;2.50;;;;;;;;;;5034604;27;92256;-74
2024/01/17 06:22:02;;;;;;;4.97;2.47;;;;;;;;;;5055611;27;91879;-74
2024/01/17 06:24:29;;;;;;;3.17;2.10;;;;;;;;;;5053046;27;92050;-74
2024/01/17 06:26:56;;;;;;;3.08;2.40;;;;;;;;;;5040087;27;92233;-74
2024/01/17 06:29:29;;;;;;;8.73;3.13;;;;;;;;;;5054510;27;91842;-74
2024/01/17 06:31:56;;;;;;;2.35;2.15;;;;;;;;;;5037428;27;92024;-73
2024/01/17 06:34:23;;;;;;;3.03;1.98;;;;;;;;;;5035079;27;94502;-74
2024/01/17 06:36:49;;;;;;;4.07;2.45;;;;;;;;;;5054923;27;92122;-74
2024/01/17 06:39:16;;;;;;;4.15;2.95;;;;;;;;;;5053669;27;92018;-74
2024/01/17 06:41:43;;;;;;;4.50;2.55;;;;;;;;;;5054402;27;92190;-74
2024/01/17 06:44:10;;;;;;;7.00;3.05;;;;;;;;;;5034751;27;92220;-74
2024/01/17 06:46:37;;;;;;;2.42;2.05;;;;;;;;;;5038482;27;92173;-74
2024/01/17 06:49:03;;;;;;;3.70;2.22;;;;;;;;;;5054063;27;92828;-74
2024/01/17 06:51:30;;;;;;;2.10;2.00;;;;;;;;;;5053485;27;91990;-74
2024/01/17 06:53:56;;;;;;;2.92;2.08;;;;;;;;;;5035565;27;92756;-75
2024/01/17 06:56:23;;;;;;;2.35;2.15;;;;;;;;;;5035538;27;92064;-75
2024/01/17 06:58:49;;;;;;;6.25;2.70;;;;;;;;;;5054511;27;91524;-74
2024/01/17 07:01:16;;;;;;;7.95;2.97;;;;;;;;;;5035828;27;91997;-74
2024/01/17 07:03:42;;;;;;;2.88;2.28;;;;;;;;;;5034853;27;94744;-74
2024/01/17 07:06:10;;;;;;;2.97;2.28;;;;;;;;;;5053924;27;92066;-74
2024/01/17 07:08:37;;;;;;;3.53;2.60;;;;;;;;;;5056776;27;92304;-74
2024/01/17 07:11:04;;;;;;;3.88;2.38;;;;;;;;;;5054189;27;91927;-74
2024/01/17 07:13:30;;;;;;;3.53;2.33;;;;;;;;;;5054513;27;92086;-74
2024/01/17 07:15:57;;;;;;;5.03;2.63;;;;;;;;;;5034995;27;94584;-74
2024/01/17 07:18:23;;;;;;;4.40;2.67;;;;;;;;;;5054212;27;93842;-74
2024/01/17 07:20:50;;;;;;;2.97;2.28;;;;;;;;;;5053344;27;92186;-75
2024/01/17 07:23:20;;;;;;;4.20;2.67;;;;;;;;;;5054396;27;93184;-74
2024/01/17 07:25:47;;;;;;;8.20;2.83;;;;;;;;;;5053168;27;92152;-74
2024/01/17 07:28:14;;;;;;;5.18;2.90;;;;;;;;;;5035585;27;94719;-74
2024/01/17 07:30:41;;;;;;;4.88;3.00;;;;;;;;;;5021091;27;94360;-74
2024/01/17 07:33:08;;;;;;;2.55;2.35;;;;;;;;;;5054189;27;91934;-75
2024/01/17 07:35:35;;;;;;;6.57;2.45;;;;;;;;;;5053181;27;91919;-75
2024/01/17 07:38:02;;;;;;;5.25;2.60;;;;;;;;;;5053037;27;92038;-75
2024/01/17 07:40:29;;;;;;;3.00;2.50;;;;;;;;;;5052742;27;92080;-75
2024/01/17 07:42:55;;;;;;;7.25;2.40;;;;;;;;;;5053231;27;92952;-74
2024/01/17 07:45:22;;;;;;;3.28;2.63;;;;;;;;;;5051276;27;92272;-75
2024/01/17 07:47:48;;;;;;;11.43;2.97;;;;;;;;;;5052358;27;92505;-74
2024/01/17 07:50:15;;;;;;;9.15;2.78;;;;;;;;;;5053301;27;92834;-75
2024/01/17 07:52:42;;;;;;;4.22;2.38;;;;;;;;;;5057144;27;91490;-75
2024/01/17 07:55:08;;;;;;;4.63;2.40;;;;;;;;;;5054424;27;92949;-75
2024/01/17 07:57:35;;;;;;;2.80;2.55;;;;;;;;;;5054786;27;92135;-75
2024/01/17 08:00:04;;;;;;;2.65;2.40;;;;;;;;;;5057511;27;92378;-74
2024/01/17 08:02:37;;;;;;;5.07;2.55;;;;;;;;;;5053849;27;92152;-74
2024/01/17 08:05:04;;;;;;;4.03;2.13;;;;;;;;;;5057400;27;91944;-74
2024/01/17 08:07:31;;;;;;;4.15;2.40;;;;;;;;;;5057577;27;91729;-74
2024/01/17 08:09:57;;;;;;;3.03;1.80;;;;;;;;;;5057580;27;92068;-74
2024/01/17 08:12:27;;;;;;;4.72;2.63;;;;;;;;;;5022001;28;92067;-75
2024/01/17 08:14:53;;;;;;;3.35;2.40;;;;;;;;;;5052800;27;92009;-74
2024/01/17 08:17:20;;;;;;;6.13;2.55;;;;;;;;;;5057743;27;92189;-74
2024/01/17 08:19:47;;;;;;;3.63;2.33;;;;;;;;;;5057057;27;92054;-74
2024/01/17 08:22:14;;;;;;;5.00;2.70;;;;;;;;;;5057044;27;92992;-74
2024/01/17 08:24:41;;;;;;;5.07;2.30;;;;;;;;;;5057434;27;92659;-74
2024/01/17 08:27:08;;;;;;;6.03;2.20;;;;;;;;;;5020762;27;93906;-74
2024/01/17 08:29:34;;;;;;;3.97;3.10;;;;;;;;;;5056847;27;92134;-74
2024/01/17 08:32:01;;;;;;;3.90;2.53;;;;;;;;;;5025650;27;91997;-74
2024/01/17 08:34:27;;;;;;;6.53;2.53;;;;;;;;;;5055566;27;92250;-74
2024/01/17 08:36:54;;;;;;;4.97;2.80;;;;;;;;;;5060635;27;91899;-74
2024/01/17 08:39:21;;;;;;;4.75;2.53;;;;;;;;;;5057437;27;92278;-74
2024/01/17 08:41:47;;;;;;;6.47;2.83;;;;;;;;;;5046509;27;91871;-74
2024/01/17 08:44:15;;;;;;;3.20;2.30;;;;;;;;;;5057437;27;92241;-74
2024/01/17 08:46:42;;;;;;;8.88;3.05;;;;;;;;;;5056949;27;92090;-74
2024/01/17 08:49:12;;;;;;;4.97;2.78;;;;;;;;;;5057341;27;92568;-74
2024/01/17 08:51:38;;;;;;;7.85;2.60;;;;;;;;;;5056392;27;93761;-75
2024/01/17 08:54:05;;;;;;;3.22;2.30;;;;;;;;;;5056758;27;92299;-75
2024/01/17 08:56:32;;;;;;;4.03;2.55;;;;;;;;;;5060541;27;92997;-75
2024/01/17 08:58:58;;;;;;;5.07;2.75;;;;;;;;;;5057155;27;92311;-76
2024/01/17 09:01:25;;;;;;;7.05;2.60;;;;;;;;;;5057430;27;92019;-76
2024/01/17 09:03:53;;;;;;;3.65;2.65;;;;;;;;;;5056691;27;91987;-76
2024/01/17 09:06:19;;;;;;;5.57;2.72;;;;;;;;;;5056815;27;92067;-76
2024/01/17 09:08:46;;;;;;;5.03;2.50;;;;;;;;;;5056104;27;92861;-76
2024/01/17 09:11:12;;;;;;;3.80;2.65;;;;;;;;;;5056437;27;92031;-75
2024/01/17 09:13:39;;;;;;;4.97;2.90;;;;;;;;;;5056864;27;92241;-75
2024/01/17 09:16:05;;;;;;;3.17;2.35;;;;;;;;;;5055472;27;92177;-75
2024/01/17 09:18:32;;;;;;;4.28;2.40;;;;;;;;;;5059613;27;91941;-75
2024/01/17 09:20:58;;;;;;;3.65;2.70;;;;;;;;;;5055408;27;92012;-75
2024/01/17 09:23:25;;;;;;;5.30;1.98;;;;;;;;;;5056570;27;92017;-74
2024/01/17 09:25:51;;;;;;;6.32;2.63;;;;;;;;;;5037429;27;92722;-74
2024/01/17 09:28:17;;;;;;;3.40;2.42;;;;;;;;;;5056425;27;92864;-74
2024/01/17 09:30:44;;;;;;;4.95;2.65;;;;;;;;;;5056407;27;92134;-75
2024/01/17 09:33:10;;;;;;;3.30;2.15;;;;;;;;;;5044493;27;92459;-75
2024/01/17 09:35:40;;;;;;;3.60;2.53;;;;;;;;;;5065485;27;92951;-75
2024/01/17 09:38:23;;;;;;;3.17;2.25;;;;;;;;;;5046388;27;92794;-74
2024/01/17 09:40:49;;;;;;;6.80;2.80;;;;;;;;;;5058929;27;92183;-74
2024/01/17 09:43:16;;;;;;;4.63;2.45;;;;;;;;;;5037338;27;92447;-75
2024/01/17 09:45:45;;;;;;;3.35;2.42;;;;;;;;;;5056369;27;92106;-75
2024/01/17 09:48:14;;;;;;;2.50;2.30;;;;;;;;;;5055274;27;93003;-75
2024/01/17 09:50:41;;;;;;;3.03;2.40;;;;;;;;;;5055872;27;92086;-75
2024/01/17 09:53:11;;;;;;;3.50;2.35;;;;;;;;;;5056290;27;92522;-75
2024/01/17 09:55:38;;;;;;;6.28;2.40;;;;;;;;;;5037749;27;92050;-75
2024/01/17 09:58:05;;;;;;;6.60;3.03;;;;;;;;;;5055699;27;92073;-75
2024/01/17 10:00:32;;;;;;;4.68;2.95;;;;;;;;;;5037721;27;92185;-76
2024/01/17 10:02:59;;;;;;;12.15;2.92;;;;;;;;;;5059175;27;92277;-75
2024/01/17 10:05:30;;;;;;;4.10;2.50;;;;;;;;;;5055193;27;92181;-76
2024/01/17 10:07:58;;;;;;;4.25;2.70;;;;;;;;;;5056647;27;92854;-79
2024/01/17 10:10:25;;;;;;;10.25;2.55;;;;;;;;;;5037458;27;92428;-81
2024/01/17 10:12:51;;;;;;;5.47;2.72;;;;;;;;;;5054790;27;92431;-78
2024/01/17 10:15:18;;;;;;;4.45;2.75;;;;;;;;;;5055128;27;92477;-77
2024/01/17 10:17:44;;;;;;;4.53;3.03;;;;;;;;;;5056438;27;92090;-77
2024/01/17 10:20:11;;;;;;;3.63;2.20;;;;;;;;;;5036076;27;92365;-78
2024/01/17 10:22:38;;;;;;;2.97;2.55;;;;;;;;;;5039401;27;94555;-80
2024/01/17 10:25:05;;;;;;;6.50;3.10;;;;;;;;;;5061659;27;92066;-80
2024/01/17 10:27:33;;;;;;;4.78;2.88;;;;;;;;;;5039627;27;93666;-80
2024/01/17 10:29:59;;;;;;;4.05;2.60;;;;;;;;;;5056175;27;92316;-81
2024/01/17 10:32:27;;;;;;;2.28;2.08;;;;;;;;;;5022739;27;93793;-82
2024/01/17 10:34:55;;;;;;;4.28;2.63;;;;;;;;;;5057993;27;91852;-81
2024/01/17 10:37:24;;;;;;;4.80;2.92;;;;;;;;;;5039022;27;92365;-80
2024/01/17 10:40:10;;;;;;;2.03;1.92;;;;;;;;;;5038451;27;94243;-77
2024/01/17 10:42:37;;;;;;;6.72;2.72;;;;;;;;;;5051142;27;92883;-77
2024/01/17 10:45:05;;;;;;;5.80;2.80;;;;;;;;;;5038014;27;91849;-77
2024/01/17 10:47:31;;;;;;;2.90;1.98;;;;;;;;;;5035443;27;93185;-78
2024/01/17 10:49:58;;;;;;;2.95;2.38;;;;;;;;;;5054037;27;93089;-77
2024/01/17 10:52:25;;;;;;;8.07;2.70;;;;;;;;;;5053054;27;92043;-77
2024/01/17 10:55:04;;;;;;;3.55;2.50;;;;;;;;;;5052666;27;92838;-77
2024/01/17 10:57:32;;;;;;;2.83;2.33;;;;;;;;;;5053434;27;92965;-76
2024/01/17 11:00:00;;;;;;;3.47;2.20;;;;;;;;;;5034121;27;95670;-78
2024/01/17 11:02:27;;;;;;;3.25;2.60;;;;;;;;;;5034535;27;92951;-77
2024/01/17 11:05:05;;;;;;;3.92;2.63;;;;;;;;;;5035366;27;91981;-75
2024/01/17 11:07:32;;;;;;;5.55;2.42;;;;;;;;;;5056252;27;92553;-76
2024/01/17 11:10:02;;;;;;;4.25;3.05;;;;;;;;;;5054985;27;92224;-75
2024/01/17 11:12:31;;;;;;;3.17;2.50;;;;;;;;;;5036792;27;92204;-76
2024/01/17 11:14:59;;;;;;;3.85;2.67;;;;;;;;;;5054385;27;92940;-75
2024/01/17 11:17:28;;;;;;;4.40;2.75;;;;;;;;;;5054959;27;92722;-76
2024/01/17 11:20:10;;;;;;;8.93;2.50;;;;;;;;;;5054132;27;92239;-75
2024/01/17 11:22:37;;;;;;;4.03;2.63;;;;;;;;;;5036114;27;92197;-75
2024/01/17 11:25:19;;;;;;;4.93;2.80;;;;;;;;;;5054817;27;91955;-75
2024/01/17 11:27:46;;;;;;;;;;;;;;;;;;5054688;27;92605;-77
2024/01/17 11:30:31;;;;;;;5.13;2.70;;;;;;;;;;5037772;27;121565;-76
2024/01/17 11:33:04;;;;;;;6.18;3.92;;;;;;;;;;5057871;27;92495;-76
2024/01/17 11:35:44;;;;;;;6.20;2.58;;;;;;;;;;5038534;27;94534;-75
2024/01/17 11:38:34;;;;;;;5.63;2.90;;;;;;;;;;5060764;27;92973;-76
2024/01/17 11:41:08;;;;;;;3.78;2.80;;;;;;;;;;5055241;27;93521;-76
2024/01/17 11:43:38;;;;;;;5.68;2.63;;;;;;;;;;5056493;27;92228;-76
2024/01/17 11:46:07;;;;;;;4.97;2.25;;;;;;;;;;5056524;27;93270;-76
2024/01/17 11:48:35;;;;;;;3.45;2.33;;;;;;;;;;5056914;27;91890;-76
2024/01/17 11:51:11;;;;;;;5.95;3.03;;;;;;;;;;5056491;27;92129;-76
2024/01/17 11:53:40;;;;;;;4.95;2.97;;;;;;;;;;5060007;27;92773;-76
2024/01/17 11:56:08;;;;;;;3.22;2.10;;;;;;;;;;5055598;27;92916;-75
2024/01/17 11:58:45;;;;;;;3.20;2.50;;;;;;;;;;5053661;27;92225;-76
2024/01/17 12:01:18;;;;;;;4.93;2.65;;;;;;;;;;5053594;27;93323;-76
2024/01/17 12:03:45;;;;;;;6.75;2.10;;;;;;;;;;5054552;27;92746;-76
2024/01/17 12:06:11;;;;;;;3.85;2.30;;;;;;;;;;5054142;27;92393;-75
2024/01/17 12:08:38;;;;;;;3.70;2.22;;;;;;;;;;5035100;27;92772;-75
2024/01/17 12:11:06;;;;;;;2.20;2.00;;;;;;;;;;5053707;27;94810;-76
2024/01/17 12:13:36;;;;;;;2.97;2.10;;;;;;;;;;5056060;27;93828;-76
2024/01/17 12:16:03;;;;;;;3.00;2.50;;;;;;;;;;5045845;27;93179;-76
2024/01/17 12:18:31;;;;;;;2.92;1.92;;;;;;;;;;5038488;27;92881;-76
2024/01/17 12:21:04;;;;;;;3.65;1.77;;;;;;;;;;5055636;27;93310;-76
2024/01/17 12:23:32;;;;;;;4.70;2.08;;;;;;;;;;5054742;27;93018;-76
2024/01/17 12:25:59;;;;;;;5.55;2.90;;;;;;;;;;5057146;27;92292;-77
2024/01/17 12:28:28;;;;;;;10.02;2.72;;;;;;;;;;5055761;27;91916;-76
2024/01/17 12:30:58;;;;;;;7.10;2.25;;;;;;;;;;5062765;27;92918;-76
2024/01/17 12:33:26;;;;;;;4.47;2.38;;;;;;;;;;5040866;27;92913;-76
2024/01/17 12:35:54;;;;;;;3.03;2.17;;;;;;;;;;5054861;27;94786;-76
2024/01/17 12:38:20;;;;;;;3.42;2.40;;;;;;;;;;5040602;27;93260;-76
2024/01/17 12:40:50;;;;;;;4.05;2.17;;;;;;;;;;5035995;27;92417;-76
2024/01/17 12:43:17;;;;;;;3.92;2.60;;;;;;;;;;5054780;27;92394;-76
2024/01/17 12:45:47;;;;;;;3.78;2.58;;;;;;;;;;5054293;27;92117;-76
2024/01/17 12:48:14;;;;;;;4.30;2.33;;;;;;;;;;5055311;27;92261;-76
2024/01/17 12:50:42;;;;;;;2.35;1.80;;;;;;;;;;5036622;27;93380;-76
2024/01/17 12:53:09;;;;;;;15.45;2.22;;;;;;;;;;5056157;27;92082;-76
2024/01/17 12:55:35;;;;;;;2.50;1.95;;;;;;;;;;5036822;27;93819;-77
2024/01/17 12:58:02;;;;;;;4.53;2.33;;;;;;;;;;5053893;27;93026;-76
2024/01/17 13:00:28;;;;;;;1.98;1.75;;;;;;;;;;5055308;27;94560;-76
2024/01/17 13:02:55;;;;;;;3.05;2.70;;;;;;;;;;5054220;27;92976;-76
2024/01/17 13:05:22;;;;;;;2.75;2.00;;;;;;;;;;5053490;27;92514;-76
2024/01/17 13:07:49;;;;;;;2.45;2.20;;;;;;;;;;5052475;27;93317;-76
2024/01/17 13:10:20;;;;;;;5.32;2.72;;;;;;;;;;5052676;27;92793;-76
2024/01/17 13:12:47;;;;;;;3.53;2.23;;;;;;;;;;5053031;27;92502;-76
2024/01/17 13:15:13;;;;;;;3.10;2.15;;;;;;;;;;5035227;27;92531;-76
2024/01/17 13:17:44;;;;;;;8.93;2.33;;;;;;;;;;5035417;27;94170;-76
2024/01/17 13:20:15;;;;;;;4.38;2.33;;;;;;;;;;5028760;28;93358;-76
2024/01/17 13:22:41;;;;;;;3.00;2.20;;;;;;;;;;5054271;27;92346;-76
2024/01/17 13:25:08;;;;;;;2.53;2.30;;;;;;;;;;5052640;27;94948;-76
2024/01/17 13:27:34;;;;;;;5.72;2.25;;;;;;;;;;5055122;27;92168;-76
2024/01/17 13:30:03;;;;;;;3.03;1.83;;;;;;;;;;5054325;27;93323;-76
2024/01/17 13:32:30;;;;;;;3.72;1.90;;;;;;;;;;5054376;27;92497;-76
2024/01/17 13:34:59;;;;;;;6.90;2.60;;;;;;;;;;5035672;27;93217;-76
2024/01/17 13:37:26;;;;;;;2.88;1.92;;;;;;;;;;5054495;27;92901;-76
2024/01/17 13:39:53;;;;;;;5.65;2.20;;;;;;;;;;5054653;27;92804;-76
2024/01/17 13:42:19;;;;;;;7.32;2.25;;;;;;;;;;5057429;27;92255;-76
2024/01/17 13:44:47;;;;;;;3.80;2.30;;;;;;;;;;5035875;27;92503;-76
2024/01/17 13:47:14;;;;;;;3.10;2.70;;;;;;;;;;5053986;27;93148;-76
2024/01/17 13:49:43;;;;;;;5.95;2.35;;;;;;;;;;5034786;27;94664;-76
2024/01/17 13:52:11;;;;;;;2.22;2.03;;;;;;;;;;5053947;27;95296;-76
2024/01/17 13:54:40;;;;;;;7.05;2.85;;;;;;;;;;5036404;27;92302;-76
2024/01/17 13:57:07;;;;;;;2.50;2.10;;;;;;;;;;5035295;27;95788;-76
2024/01/17 13:59:35;;;;;;;3.65;2.10;;;;;;;;;;5053602;27;92451;-76
2024/01/17 14:02:02;;;;;;;3.42;2.15;;;;;;;;;;5032810;27;92626;-76
2024/01/17 14:04:29;;;;;;;4.18;2.45;;;;;;;;;;5057173;27;92435;-76
2024/01/17 14:06:55;;;;;;;3.97;2.67;;;;;;;;;;5019681;27;92240;-76
2024/01/17 14:09:23;;;;;;;2.15;1.92;;;;;;;;;;5023744;27;92570;-76
2024/01/17 14:11:52;;;;;;;3.40;2.08;;;;;;;;;;5053447;27;92889;-76
2024/01/17 14:14:19;;;;;;;3.97;2.22;;;;;;;;;;5033471;27;96677;-76
2024/01/17 14:16:45;;;;;;;4.53;2.38;;;;;;;;;;5018607;27;93912;-76
2024/01/17 14:19:12;;;;;;;2.92;2.08;;;;;;;;;;5053380;27;92519;-76
2024/01/17 14:21:38;;;;;;;4.15;2.50;;;;;;;;;;5054227;27;92268;-77
2024/01/17 14:24:05;;;;;;;4.88;2.17;;;;;;;;;;5052738;27;92551;-76
2024/01/17 14:26:32;;;;;;;2.67;2.08;;;;;;;;;;5054797;27;92807;-76
2024/01/17 14:28:59;;;;;;;5.88;2.25;;;;;;;;;;5052752;27;92366;-76
2024/01/17 14:31:25;;;;;;;5.10;2.50;;;;;;;;;;5052556;27;91854;-76
2024/01/17 14:33:52;;;;;;;3.40;2.75;;;;;;;;;;5051935;27;92524;-76
2024/01/17 14:36:18;;;;;;;3.00;2.30;;;;;;;;;;5053178;27;93176;-76
2024/01/17 14:38:45;;;;;;;3.22;2.17;;;;;;;;;;5016802;27;94895;-76
2024/01/17 14:41:11;;;;;;;2.50;2.20;;;;;;;;;;5027988;27;92448;-76
2024/01/17 14:43:39;;;;;;;3.20;2.13;;;;;;;;;;5053398;27;92301;-76